sensor_id;sensor_type;location;lat;lon;timestamp;temperature;humidity
23143;DHT22;11740;51.168;4.112;2023-03-20T00:01:18;5.90;1.00
23143;DHT22;11740;51.168;4.112;2023-03-20T00:03:50;5.80;99.90
23143;DHT22;11740;51.168;4.112;2023-03-20T00:06:17;5.80;99.90
23143;DHT22;11740;51.168;4.112;2023-03-20T00:08:49;5.80;1.00
23143;DHT22;11740;51.168;4.112;2023-03-20T00:11:26;5.70;99.90
23143;DHT22;11740;51.168;4.112;2023-03-20T00:14:04;5.60;99.90
23143;DHT22;11740;51.168;4.112;2023-03-20T00:16:33;5.60;99.90
23143;DHT22;11740;51.168;4.112;2023-03-20T00:19:02;5.60;1.00
23143;DHT22;11740;51.168;4.112;2023-03-20T00:21:29;5.50;1.00
23143;DHT22;11740;51.168;4.112;2023-03-20T00:23:57;5.50;1.00
23143;DHT22;11740;51.168;4.112;2023-03-20T00:26:25;5.50;1.00
23143;DHT22;11740;51.168;4.112;2023-03-20T00:28:54;5.40;1.00
23143;DHT22;11740;51.168;4.112;2023-03-20T00:34:00;5.30;1.00
23143;DHT22;11740;51.168;4.112;2023-03-20T00:36:29;5.30;1.00
23143;DHT22;11740;51.168;4.112;2023-03-20T00:38:56;5.30;1.00
23143;DHT22;11740;51.168;4.112;2023-03-20T00:41:27;5.30;99.90
23143;DHT22;11740;51.168;4.112;2023-03-20T00:46:52;5.40;99.90
23143;DHT22;11740;51.168;4.112;2023-03-20T00:49:32;5.30;1.00
23143;DHT22;11740;51.168;4.112;2023-03-20T00:52:01;5.30;1.00
23143;DHT22;11740;51.168;4.112;2023-03-20T00:54:29;5.30;1.00
23143;DHT22;11740;51.168;4.112;2023-03-20T00:56:58;5.30;99.90
23143;DHT22;11740;51.168;4.112;2023-03-20T00:59:27;5.30;99.90
23143;DHT22;11740;51.168;4.112;2023-03-20T01:01:57;5.30;99.90
23143;DHT22;11740;51.168;4.112;2023-03-20T01:04:25;5.30;1.00
23143;DHT22;11740;51.168;4.112;2023-03-20T01:06:56;5.20;99.90
23143;DHT22;11740;51.168;4.112;2023-03-20T01:09:23;5.20;30.00
23143;DHT22;11740;51.168;4.112;2023-03-20T01:11:49;5.20;99.90
23143;DHT22;11740;51.168;4.112;2023-03-20T01:14:19;5.20;99.90
23143;DHT22;11740;51.168;4.112;2023-03-20T01:16:46;5.20;99.90
23143;DHT22;11740;51.168;4.112;2023-03-20T01:19:13;5.20;99.90
23143;DHT22;11740;51.168;4.112;2023-03-20T01:21:41;5.20;99.90
23143;DHT22;11740;51.168;4.112;2023-03-20T01:24:08;5.20;1.00
23143;DHT22;11740;51.168;4.112;2023-03-20T01:26:35;5.20;1.00
23143;DHT22;11740;51.168;4.112;2023-03-20T01:29:04;5.20;1.00
23143;DHT22;11740;51.168;4.112;2023-03-20T01:31:57;5.20;1.00
23143;DHT22;11740;51.168;4.112;2023-03-20T01:34:24;5.20;1.00
23143;DHT22;11740;51.168;4.112;2023-03-20T01:36:54;5.20;1.00
23143;DHT22;11740;51.168;4.112;2023-03-20T01:39:27;5.10;1.00
23143;DHT22;11740;51.168;4.112;2023-03-20T01:42:01;5.10;1.00
23143;DHT22;11740;51.168;4.112;2023-03-20T01:44:29;5.10;99.90
23143;DHT22;11740;51.168;4.112;2023-03-20T01:46:57;5.10;1.00
23143;DHT22;11740;51.168;4.112;2023-03-20T01:51:54;5.10;1.00
23143;DHT22;11740;51.168;4.112;2023-03-20T01:54:22;5.10;1.00
23143;DHT22;11740;51.168;4.112;2023-03-20T01:59:42;5.10;99.90
23143;DHT22;11740;51.168;4.112;2023-03-20T02:02:13;5.10;99.90
23143;DHT22;11740;51.168;4.112;2023-03-20T02:04:42;5.00;98.90
23143;DHT22;11740;51.168;4.112;2023-03-20T02:07:12;5.10;99.90
23143;DHT22;11740;51.168;4.112;2023-03-20T02:09:41;5.00;99.90
23143;DHT22;11740;51.168;4.112;2023-03-20T02:12:08;5.10;99.90
23143;DHT22;11740;51.168;4.112;2023-03-20T02:14:35;5.10;1.00
23143;DHT22;11740;51.168;4.112;2023-03-20T02:17:03;5.00;99.90
23143;DHT22;11740;51.168;4.112;2023-03-20T02:30:42;5.00;1.00
23143;DHT22;11740;51.168;4.112;2023-03-20T02:38:47;4.90;99.90
23143;DHT22;11740;51.168;4.112;2023-03-20T02:47:03;4.90;99.90
23143;DHT22;11740;51.168;4.112;2023-03-20T02:58:18;4.80;99.90
23143;DHT22;11740;51.168;4.112;2023-03-20T03:00:59;4.80;99.90
23143;DHT22;11740;51.168;4.112;2023-03-20T03:03:31;4.80;99.90
23143;DHT22;11740;51.168;4.112;2023-03-20T03:06:08;4.80;99.90
23143;DHT22;11740;51.168;4.112;2023-03-20T03:08:38;4.80;1.00
23143;DHT22;11740;51.168;4.112;2023-03-20T03:11:08;4.80;1.00
23143;DHT22;11740;51.168;4.112;2023-03-20T03:13:42;4.80;1.00
23143;DHT22;11740;51.168;4.112;2023-03-20T03:16:13;4.80;1.00
23143;DHT22;11740;51.168;4.112;2023-03-20T03:18:43;4.80;1.00
23143;DHT22;11740;51.168;4.112;2023-03-20T03:21:12;4.80;1.00
23143;DHT22;11740;51.168;4.112;2023-03-20T03:23:44;4.80;1.00
23143;DHT22;11740;51.168;4.112;2023-03-20T03:26:46;4.80;1.00
23143;DHT22;11740;51.168;4.112;2023-03-20T03:29:10;4.80;1.00
23143;DHT22;11740;51.168;4.112;2023-03-20T03:31:39;4.80;1.00
23143;DHT22;11740;51.168;4.112;2023-03-20T03:34:07;4.80;1.00
23143;DHT22;11740;51.168;4.112;2023-03-20T03:47:42;4.80;45.70
23143;DHT22;11740;51.168;4.112;2023-03-20T03:50:13;4.80;1.00
23143;DHT22;11740;51.168;4.112;2023-03-20T03:52:42;4.80;40.40
23143;DHT22;11740;51.168;4.112;2023-03-20T03:55:11;4.80;99.90
23143;DHT22;11740;51.168;4.112;2023-03-20T03:57:45;4.80;99.90
23143;DHT22;11740;51.168;4.112;2023-03-20T04:00:17;4.80;99.90
23143;DHT22;11740;51.168;4.112;2023-03-20T04:02:47;4.80;99.90
23143;DHT22;11740;51.168;4.112;2023-03-20T04:05:17;4.80;99.90
23143;DHT22;11740;51.168;4.112;2023-03-20T04:07:45;4.80;99.90
23143;DHT22;11740;51.168;4.112;2023-03-20T04:10:13;4.80;99.90
23143;DHT22;11740;51.168;4.112;2023-03-20T04:12:41;4.80;99.90
23143;DHT22;11740;51.168;4.112;2023-03-20T04:15:09;4.80;99.90
23143;DHT22;11740;51.168;4.112;2023-03-20T04:17:37;4.80;99.90
23143;DHT22;11740;51.168;4.112;2023-03-20T04:20:04;4.80;99.90
23143;DHT22;11740;51.168;4.112;2023-03-20T04:22:33;4.80;99.90
23143;DHT22;11740;51.168;4.112;2023-03-20T04:25:03;4.80;99.90
23143;DHT22;11740;51.168;4.112;2023-03-20T04:27:32;4.80;99.90
23143;DHT22;11740;51.168;4.112;2023-03-20T04:29:59;4.80;99.90
23143;DHT22;11740;51.168;4.112;2023-03-20T04:32:26;4.90;99.90
23143;DHT22;11740;51.168;4.112;2023-03-20T04:34:53;4.90;99.90
23143;DHT22;11740;51.168;4.112;2023-03-20T04:37:19;4.80;99.90
23143;DHT22;11740;51.168;4.112;2023-03-20T04:39:46;4.90;99.90
23143;DHT22;11740;51.168;4.112;2023-03-20T04:42:13;4.90;99.90
23143;DHT22;11740;51.168;4.112;2023-03-20T04:44:40;4.80;99.90
23143;DHT22;11740;51.168;4.112;2023-03-20T04:47:07;4.90;1.00
23143;DHT22;11740;51.168;4.112;2023-03-20T04:49:33;4.90;99.90
23143;DHT22;11740;51.168;4.112;2023-03-20T04:52:00;4.90;99.90
23143;DHT22;11740;51.168;4.112;2023-03-20T04:54:28;4.90;99.90
23143;DHT22;11740;51.168;4.112;2023-03-20T04:56:54;4.90;1.00
23143;DHT22;11740;51.168;4.112;2023-03-20T04:59:21;4.90;1.00
23143;DHT22;11740;51.168;4.112;2023-03-20T05:01:48;4.90;1.00
23143;DHT22;11740;51.168;4.112;2023-03-20T05:04:15;4.90;99.90
23143;DHT22;11740;51.168;4.112;2023-03-20T05:06:42;4.90;99.90
23143;DHT22;11740;51.168;4.112;2023-03-20T05:09:09;4.90;99.90
23143;DHT22;11740;51.168;4.112;2023-03-20T05:11:36;4.90;99.90
23143;DHT22;11740;51.168;4.112;2023-03-20T05:14:03;4.90;1.00
23143;DHT22;11740;51.168;4.112;2023-03-20T05:16:30;4.90;1.00
23143;DHT22;11740;51.168;4.112;2023-03-20T05:18:57;5.00;1.00
23143;DHT22;11740;51.168;4.112;2023-03-20T05:21:24;5.00;1.00
23143;DHT22;11740;51.168;4.112;2023-03-20T05:23:51;5.00;1.00
23143;DHT22;11740;51.168;4.112;2023-03-20T05:26:18;5.00;1.00
23143;DHT22;11740;51.168;4.112;2023-03-20T05:28:44;5.00;1.00
23143;DHT22;11740;51.168;4.112;2023-03-20T05:31:11;5.00;1.00
23143;DHT22;11740;51.168;4.112;2023-03-20T05:33:38;5.00;1.00
23143;DHT22;11740;51.168;4.112;2023-03-20T05:36:05;5.00;1.00
23143;DHT22;11740;51.168;4.112;2023-03-20T05:38:33;5.00;1.00
23143;DHT22;11740;51.168;4.112;2023-03-20T05:41:00;5.00;1.00
23143;DHT22;11740;51.168;4.112;2023-03-20T05:43:27;5.10;1.00
23143;DHT22;11740;51.168;4.112;2023-03-20T05:45:55;5.00;1.00
23143;DHT22;11740;51.168;4.112;2023-03-20T05:48:22;5.00;1.00
23143;DHT22;11740;51.168;4.112;2023-03-20T05:50:49;5.10;1.00
23143;DHT22;11740;51.168;4.112;2023-03-20T05:53:16;5.10;1.00
23143;DHT22;11740;51.168;4.112;2023-03-20T05:55:43;5.10;1.00
23143;DHT22;11740;51.168;4.112;2023-03-20T05:58:10;5.20;1.00
23143;DHT22;11740;51.168;4.112;2023-03-20T06:00:38;5.20;1.00
23143;DHT22;11740;51.168;4.112;2023-03-20T06:03:05;5.20;1.00
23143;DHT22;11740;51.168;4.112;2023-03-20T06:05:34;5.20;1.00
23143;DHT22;11740;51.168;4.112;2023-03-20T06:08:02;5.20;1.00
23143;DHT22;11740;51.168;4.112;2023-03-20T06:10:29;5.20;1.00
23143;DHT22;11740;51.168;4.112;2023-03-20T06:12:57;5.20;1.00
23143;DHT22;11740;51.168;4.112;2023-03-20T06:15:26;5.20;1.00
23143;DHT22;11740;51.168;4.112;2023-03-20T06:17:54;5.20;1.00
23143;DHT22;11740;51.168;4.112;2023-03-20T06:20:21;5.20;1.00
23143;DHT22;11740;51.168;4.112;2023-03-20T06:22:49;5.30;1.00
23143;DHT22;11740;51.168;4.112;2023-03-20T06:25:16;5.30;1.00
23143;DHT22;11740;51.168;4.112;2023-03-20T06:27:44;5.30;1.00
23143;DHT22;11740;51.168;4.112;2023-03-20T06:30:12;5.40;1.00
23143;DHT22;11740;51.168;4.112;2023-03-20T06:32:40;5.30;1.00
23143;DHT22;11740;51.168;4.112;2023-03-20T06:35:07;5.30;1.00
23143;DHT22;11740;51.168;4.112;2023-03-20T06:37:34;5.30;1.00
23143;DHT22;11740;51.168;4.112;2023-03-20T06:40:02;5.30;1.00
23143;DHT22;11740;51.168;4.112;2023-03-20T06:42:30;5.40;1.00
23143;DHT22;11740;51.168;4.112;2023-03-20T06:44:57;5.40;1.00
23143;DHT22;11740;51.168;4.112;2023-03-20T06:47:24;5.40;1.00
23143;DHT22;11740;51.168;4.112;2023-03-20T06:49:50;5.40;1.00
23143;DHT22;11740;51.168;4.112;2023-03-20T06:52:18;5.40;1.00
23143;DHT22;11740;51.168;4.112;2023-03-20T06:54:47;5.50;1.00
23143;DHT22;11740;51.168;4.112;2023-03-20T06:57:13;5.50;1.00
23143;DHT22;11740;51.168;4.112;2023-03-20T06:59:43;5.50;1.00
23143;DHT22;11740;51.168;4.112;2023-03-20T07:02:10;5.60;1.00
23143;DHT22;11740;51.168;4.112;2023-03-20T07:04:37;5.50;1.00
23143;DHT22;11740;51.168;4.112;2023-03-20T07:07:05;5.60;1.00
23143;DHT22;11740;51.168;4.112;2023-03-20T07:09:32;5.60;1.00
23143;DHT22;11740;51.168;4.112;2023-03-20T07:11:59;5.60;1.00
23143;DHT22;11740;51.168;4.112;2023-03-20T07:14:26;5.60;1.00
23143;DHT22;11740;51.168;4.112;2023-03-20T07:16:53;5.70;1.00
23143;DHT22;11740;51.168;4.112;2023-03-20T07:19:22;5.70;1.00
23143;DHT22;11740;51.168;4.112;2023-03-20T07:21:49;5.70;99.90
23143;DHT22;11740;51.168;4.112;2023-03-20T07:24:18;5.70;1.00
23143;DHT22;11740;51.168;4.112;2023-03-20T07:26:45;5.70;99.90
23143;DHT22;11740;51.168;4.112;2023-03-20T07:29:12;5.80;1.00
23143;DHT22;11740;51.168;4.112;2023-03-20T07:31:39;5.80;1.00
23143;DHT22;11740;51.168;4.112;2023-03-20T07:34:06;5.80;1.00
23143;DHT22;11740;51.168;4.112;2023-03-20T07:36:33;5.80;1.00
23143;DHT22;11740;51.168;4.112;2023-03-20T07:39:00;5.80;1.00
23143;DHT22;11740;51.168;4.112;2023-03-20T07:41:27;5.80;1.00
23143;DHT22;11740;51.168;4.112;2023-03-20T07:43:54;5.90;1.00
23143;DHT22;11740;51.168;4.112;2023-03-20T07:46:21;5.90;1.00
23143;DHT22;11740;51.168;4.112;2023-03-20T07:48:48;5.90;1.00
23143;DHT22;11740;51.168;4.112;2023-03-20T07:51:14;5.90;1.00
23143;DHT22;11740;51.168;4.112;2023-03-20T07:53:41;5.90;1.00
23143;DHT22;11740;51.168;4.112;2023-03-20T07:56:08;5.90;1.00
23143;DHT22;11740;51.168;4.112;2023-03-20T07:58:35;6.00;1.00
23143;DHT22;11740;51.168;4.112;2023-03-20T08:01:02;6.00;1.00
23143;DHT22;11740;51.168;4.112;2023-03-20T08:03:29;6.10;1.00
23143;DHT22;11740;51.168;4.112;2023-03-20T08:05:57;6.10;1.00
23143;DHT22;11740;51.168;4.112;2023-03-20T08:08:24;6.10;1.00
23143;DHT22;11740;51.168;4.112;2023-03-20T08:10:51;6.10;1.00
23143;DHT22;11740;51.168;4.112;2023-03-20T08:13:18;6.10;99.90
23143;DHT22;11740;51.168;4.112;2023-03-20T08:15:45;6.20;1.00
23143;DHT22;11740;51.168;4.112;2023-03-20T08:18:12;6.20;1.00
23143;DHT22;11740;51.168;4.112;2023-03-20T08:20:39;6.20;99.90
23143;DHT22;11740;51.168;4.112;2023-03-20T08:23:06;6.20;99.90
23143;DHT22;11740;51.168;4.112;2023-03-20T08:25:33;6.30;99.90
23143;DHT22;11740;51.168;4.112;2023-03-20T08:28:00;6.30;99.90
23143;DHT22;11740;51.168;4.112;2023-03-20T08:30:27;6.30;99.90
23143;DHT22;11740;51.168;4.112;2023-03-20T08:32:55;6.40;99.90
23143;DHT22;11740;51.168;4.112;2023-03-20T08:35:24;6.40;99.90
23143;DHT22;11740;51.168;4.112;2023-03-20T08:37:58;6.40;99.90
23143;DHT22;11740;51.168;4.112;2023-03-20T08:40:26;6.40;28.90
23143;DHT22;11740;51.168;4.112;2023-03-20T08:42:53;6.50;1.00
23143;DHT22;11740;51.168;4.112;2023-03-20T08:45:20;6.50;1.00
23143;DHT22;11740;51.168;4.112;2023-03-20T08:47:47;6.50;1.00
23143;DHT22;11740;51.168;4.112;2023-03-20T08:50:14;6.60;1.00
23143;DHT22;11740;51.168;4.112;2023-03-20T08:52:41;6.50;1.00
23143;DHT22;11740;51.168;4.112;2023-03-20T08:55:10;6.60;1.00
23143;DHT22;11740;51.168;4.112;2023-03-20T08:57:37;6.60;1.00
23143;DHT22;11740;51.168;4.112;2023-03-20T09:00:04;6.60;1.00
23143;DHT22;11740;51.168;4.112;2023-03-20T09:02:32;6.70;1.00
23143;DHT22;11740;51.168;4.112;2023-03-20T09:05:00;6.80;1.00
23143;DHT22;11740;51.168;4.112;2023-03-20T09:07:27;6.90;1.00
23143;DHT22;11740;51.168;4.112;2023-03-20T09:09:54;6.90;1.00
23143;DHT22;11740;51.168;4.112;2023-03-20T09:12:21;6.90;1.00
23143;DHT22;11740;51.168;4.112;2023-03-20T09:14:48;7.00;99.90
23143;DHT22;11740;51.168;4.112;2023-03-20T09:17:14;7.00;99.90
23143;DHT22;11740;51.168;4.112;2023-03-20T09:19:41;7.10;99.90
23143;DHT22;11740;51.168;4.112;2023-03-20T09:22:14;7.20;99.90
23143;DHT22;11740;51.168;4.112;2023-03-20T09:24:43;7.20;1.00
23143;DHT22;11740;51.168;4.112;2023-03-20T09:27:11;7.30;1.00
23143;DHT22;11740;51.168;4.112;2023-03-20T09:29:41;7.30;1.00
23143;DHT22;11740;51.168;4.112;2023-03-20T09:32:12;7.40;1.00
23143;DHT22;11740;51.168;4.112;2023-03-20T09:34:40;7.50;1.00
23143;DHT22;11740;51.168;4.112;2023-03-20T09:37:07;7.50;1.00
23143;DHT22;11740;51.168;4.112;2023-03-20T09:39:34;7.50;99.90
23143;DHT22;11740;51.168;4.112;2023-03-20T09:42:16;7.60;99.90
23143;DHT22;11740;51.168;4.112;2023-03-20T09:50:27;7.70;99.90
23143;DHT22;11740;51.168;4.112;2023-03-20T09:55:39;7.90;99.90
23143;DHT22;11740;51.168;4.112;2023-03-20T09:58:12;7.90;99.90
23143;DHT22;11740;51.168;4.112;2023-03-20T10:00:44;7.90;83.70
23143;DHT22;11740;51.168;4.112;2023-03-20T10:03:23;8.00;1.00
23143;DHT22;11740;51.168;4.112;2023-03-20T10:06:01;8.00;1.00
23143;DHT22;11740;51.168;4.112;2023-03-20T10:08:34;8.10;1.00
23143;DHT22;11740;51.168;4.112;2023-03-20T10:16:12;8.10;1.00
23143;DHT22;11740;51.168;4.112;2023-03-20T10:18:42;8.10;1.00
23143;DHT22;11740;51.168;4.112;2023-03-20T10:21:16;8.10;1.00
23143;DHT22;11740;51.168;4.112;2023-03-20T10:24:01;8.20;99.90
23143;DHT22;11740;51.168;4.112;2023-03-20T10:26:31;8.20;99.90
23143;DHT22;11740;51.168;4.112;2023-03-20T10:29:00;8.20;99.90
23143;DHT22;11740;51.168;4.112;2023-03-20T10:39:48;8.40;1.00
23143;DHT22;11740;51.168;4.112;2023-03-20T10:42:22;8.50;99.90
23143;DHT22;11740;51.168;4.112;2023-03-20T10:45:17;8.60;99.90
23143;DHT22;11740;51.168;4.112;2023-03-20T10:47:48;8.60;99.90
23143;DHT22;11740;51.168;4.112;2023-03-20T10:50:18;8.70;99.90
23143;DHT22;11740;51.168;4.112;2023-03-20T10:52:49;8.80;99.90
23143;DHT22;11740;51.168;4.112;2023-03-20T10:55:27;8.90;1.00
23143;DHT22;11740;51.168;4.112;2023-03-20T10:58:08;9.00;1.00
23143;DHT22;11740;51.168;4.112;2023-03-20T11:00:41;9.10;1.00
23143;DHT22;11740;51.168;4.112;2023-03-20T11:03:15;9.20;1.00
23143;DHT22;11740;51.168;4.112;2023-03-20T11:05:46;9.20;1.00
23143;DHT22;11740;51.168;4.112;2023-03-20T11:08:40;9.30;1.00
23143;DHT22;11740;51.168;4.112;2023-03-20T11:11:08;9.40;99.90
23143;DHT22;11740;51.168;4.112;2023-03-20T11:13:40;9.50;99.90
23143;DHT22;11740;51.168;4.112;2023-03-20T11:18:35;9.70;99.90
23143;DHT22;11740;51.168;4.112;2023-03-20T11:21:02;9.80;99.90
23143;DHT22;11740;51.168;4.112;2023-03-20T11:23:33;9.90;99.90
23143;DHT22;11740;51.168;4.112;2023-03-20T11:26:01;10.00;99.90
23143;DHT22;11740;51.168;4.112;2023-03-20T11:33:39;10.10;99.90
23143;DHT22;11740;51.168;4.112;2023-03-20T11:36:10;10.00;99.90
23143;DHT22;11740;51.168;4.112;2023-03-20T11:38:46;10.00;99.90
23143;DHT22;11740;51.168;4.112;2023-03-20T11:41:17;10.10;99.90
23143;DHT22;11740;51.168;4.112;2023-03-20T11:43:54;10.10;99.90
23143;DHT22;11740;51.168;4.112;2023-03-20T11:46:21;10.10;99.90
23143;DHT22;11740;51.168;4.112;2023-03-20T11:51:58;10.20;99.90
23143;DHT22;11740;51.168;4.112;2023-03-20T11:54:27;10.30;99.90
23143;DHT22;11740;51.168;4.112;2023-03-20T11:56:55;10.30;99.90
23143;DHT22;11740;51.168;4.112;2023-03-20T11:59:33;10.30;99.90
23143;DHT22;11740;51.168;4.112;2023-03-20T12:02:02;10.30;99.90
23143;DHT22;11740;51.168;4.112;2023-03-20T12:04:31;10.40;99.90
23143;DHT22;11740;51.168;4.112;2023-03-20T12:09:59;10.50;99.00
23143;DHT22;11740;51.168;4.112;2023-03-20T12:15:26;10.50;97.90
23143;DHT22;11740;51.168;4.112;2023-03-20T12:20:53;10.50;70.20
23143;DHT22;11740;51.168;4.112;2023-03-20T12:23:32;10.50;75.50
23143;DHT22;11740;51.168;4.112;2023-03-20T12:26:03;10.60;47.70
23143;DHT22;11740;51.168;4.112;2023-03-20T12:28:45;10.60;34.50
23143;DHT22;11740;51.168;4.112;2023-03-20T12:31:43;10.50;35.80
23143;DHT22;11740;51.168;4.112;2023-03-20T12:34:14;10.60;56.50
23143;DHT22;11740;51.168;4.112;2023-03-20T12:36:46;10.60;77.50
23143;DHT22;11740;51.168;4.112;2023-03-20T12:39:15;10.60;99.90
23143;DHT22;11740;51.168;4.112;2023-03-20T12:46:54;10.70;99.90
23143;DHT22;11740;51.168;4.112;2023-03-20T12:49:26;10.70;99.90
23143;DHT22;11740;51.168;4.112;2023-03-20T12:52:14;10.70;99.90
23143;DHT22;11740;51.168;4.112;2023-03-20T12:57:45;10.70;99.90
23143;DHT22;11740;51.168;4.112;2023-03-20T13:05:51;10.90;99.90
23143;DHT22;11740;51.168;4.112;2023-03-20T13:11:23;10.90;99.90
23143;DHT22;11740;51.168;4.112;2023-03-20T13:16:54;11.00;99.90
23143;DHT22;11740;51.168;4.112;2023-03-20T13:20:06;11.10;99.90
23143;DHT22;11740;51.168;4.112;2023-03-20T13:25:48;11.10;99.90
23143;DHT22;11740;51.168;4.112;2023-03-20T13:31:35;11.20;99.90
23143;DHT22;11740;51.168;4.112;2023-03-20T13:51:07;11.20;73.90
23143;DHT22;11740;51.168;4.112;2023-03-20T13:53:44;11.20;76.00
23143;DHT22;11740;51.168;4.112;2023-03-20T13:56:42;11.30;99.90
23143;DHT22;11740;51.168;4.112;2023-03-20T14:04:26;11.40;81.70
23143;DHT22;11740;51.168;4.112;2023-03-20T14:06:54;11.40;92.30
23143;DHT22;11740;51.168;4.112;2023-03-20T14:09:24;11.50;89.60
23143;DHT22;11740;51.168;4.112;2023-03-20T14:14:30;11.60;99.90
23143;DHT22;11740;51.168;4.112;2023-03-20T14:17:16;11.60;63.00
23143;DHT22;11740;51.168;4.112;2023-03-20T14:19:45;11.60;83.20
23143;DHT22;11740;51.168;4.112;2023-03-20T14:22:23;11.60;99.90
23143;DHT22;11740;51.168;4.112;2023-03-20T14:24:57;11.60;99.90
23143;DHT22;11740;51.168;4.112;2023-03-20T14:27:27;11.60;85.90
23143;DHT22;11740;51.168;4.112;2023-03-20T14:32:59;11.60;99.90
23143;DHT22;11740;51.168;4.112;2023-03-20T14:35:36;11.60;99.90
23143;DHT22;11740;51.168;4.112;2023-03-20T14:40:56;11.60;99.90
23143;DHT22;11740;51.168;4.112;2023-03-20T14:46:20;11.60;99.90
23143;DHT22;11740;51.168;4.112;2023-03-20T14:48:53;11.60;99.90
23143;DHT22;11740;51.168;4.112;2023-03-20T14:53:57;11.60;1.00
23143;DHT22;11740;51.168;4.112;2023-03-20T14:57:06;11.50;1.00
23143;DHT22;11740;51.168;4.112;2023-03-20T14:59:35;11.60;1.00
23143;DHT22;11740;51.168;4.112;2023-03-20T15:02:03;11.70;1.00
23143;DHT22;11740;51.168;4.112;2023-03-20T15:04:30;11.70;1.00
23143;DHT22;11740;51.168;4.112;2023-03-20T15:07:05;11.70;1.00
23143;DHT22;11740;51.168;4.112;2023-03-20T15:09:50;11.70;1.00
23143;DHT22;11740;51.168;4.112;2023-03-20T15:12:20;11.70;99.90
23143;DHT22;11740;51.168;4.112;2023-03-20T15:14:52;11.70;99.90
23143;DHT22;11740;51.168;4.112;2023-03-20T15:17:22;11.70;99.90
23143;DHT22;11740;51.168;4.112;2023-03-20T15:20:11;11.80;1.00
23143;DHT22;11740;51.168;4.112;2023-03-20T15:22:48;11.90;1.00
23143;DHT22;11740;51.168;4.112;2023-03-20T15:25:29;11.80;99.90
23143;DHT22;11740;51.168;4.112;2023-03-20T15:30:45;11.80;99.90
23143;DHT22;11740;51.168;4.112;2023-03-20T15:33:18;11.80;99.90
23143;DHT22;11740;51.168;4.112;2023-03-20T15:35:50;11.80;99.90
23143;DHT22;11740;51.168;4.112;2023-03-20T15:38:17;11.80;99.90
23143;DHT22;11740;51.168;4.112;2023-03-20T15:40:45;11.80;99.90
23143;DHT22;11740;51.168;4.112;2023-03-20T15:43:19;11.80;99.90
23143;DHT22;11740;51.168;4.112;2023-03-20T15:45:47;11.80;99.90
23143;DHT22;11740;51.168;4.112;2023-03-20T15:48:17;11.80;99.90
23143;DHT22;11740;51.168;4.112;2023-03-20T15:50:45;11.80;99.90
23143;DHT22;11740;51.168;4.112;2023-03-20T15:53:17;11.80;99.90
23143;DHT22;11740;51.168;4.112;2023-03-20T15:55:49;11.70;99.90
23143;DHT22;11740;51.168;4.112;2023-03-20T15:58:17;11.70;99.90
23143;DHT22;11740;51.168;4.112;2023-03-20T16:00:47;11.70;99.90
23143;DHT22;11740;51.168;4.112;2023-03-20T16:03:15;11.70;99.90
23143;DHT22;11740;51.168;4.112;2023-03-20T16:05:46;11.70;99.90
23143;DHT22;11740;51.168;4.112;2023-03-20T16:10:55;11.80;99.90
23143;DHT22;11740;51.168;4.112;2023-03-20T16:13:39;11.80;99.90
23143;DHT22;11740;51.168;4.112;2023-03-20T16:16:15;11.70;99.90
23143;DHT22;11740;51.168;4.112;2023-03-20T16:18:44;11.80;99.90
23143;DHT22;11740;51.168;4.112;2023-03-20T16:24:26;11.80;99.90
23143;DHT22;11740;51.168;4.112;2023-03-20T16:26:55;11.80;99.90
23143;DHT22;11740;51.168;4.112;2023-03-20T16:29:23;11.80;99.90
23143;DHT22;11740;51.168;4.112;2023-03-20T16:31:56;11.80;99.90
23143;DHT22;11740;51.168;4.112;2023-03-20T16:34:26;11.80;99.90
23143;DHT22;11740;51.168;4.112;2023-03-20T16:36:59;11.80;99.90
23143;DHT22;11740;51.168;4.112;2023-03-20T16:39:28;11.80;99.90
23143;DHT22;11740;51.168;4.112;2023-03-20T16:42:00;11.80;99.90
23143;DHT22;11740;51.168;4.112;2023-03-20T16:44:40;11.70;99.90
23143;DHT22;11740;51.168;4.112;2023-03-20T16:47:19;11.70;99.90
23143;DHT22;11740;51.168;4.112;2023-03-20T16:50:02;11.80;99.90
23143;DHT22;11740;51.168;4.112;2023-03-20T16:52:30;11.70;99.90
23143;DHT22;11740;51.168;4.112;2023-03-20T16:55:01;11.70;99.90
23143;DHT22;11740;51.168;4.112;2023-03-20T16:57:32;11.70;99.90
23143;DHT22;11740;51.168;4.112;2023-03-20T17:00:04;11.70;99.90
23143;DHT22;11740;51.168;4.112;2023-03-20T17:02:38;11.70;99.90
23143;DHT22;11740;51.168;4.112;2023-03-20T17:05:11;11.70;99.90
23143;DHT22;11740;51.168;4.112;2023-03-20T17:07:38;11.70;99.90
23143;DHT22;11740;51.168;4.112;2023-03-20T17:12:44;11.60;99.90
23143;DHT22;11740;51.168;4.112;2023-03-20T17:15:16;11.50;99.90
23143;DHT22;11740;51.168;4.112;2023-03-20T17:17:47;11.50;99.90
23143;DHT22;11740;51.168;4.112;2023-03-20T17:20:20;11.50;99.90
23143;DHT22;11740;51.168;4.112;2023-03-20T17:22:51;11.50;99.90
23143;DHT22;11740;51.168;4.112;2023-03-20T17:25:18;11.60;99.90
23143;DHT22;11740;51.168;4.112;2023-03-20T17:27:46;11.50;99.90
23143;DHT22;11740;51.168;4.112;2023-03-20T17:30:17;11.60;99.90
23143;DHT22;11740;51.168;4.112;2023-03-20T17:32:45;11.50;99.90
23143;DHT22;11740;51.168;4.112;2023-03-20T17:35:12;11.50;99.90
23143;DHT22;11740;51.168;4.112;2023-03-20T17:37:39;11.50;99.90
23143;DHT22;11740;51.168;4.112;2023-03-20T17:40:09;11.50;99.90
23143;DHT22;11740;51.168;4.112;2023-03-20T17:42:40;11.50;99.90
23143;DHT22;11740;51.168;4.112;2023-03-20T17:45:11;11.40;99.90
23143;DHT22;11740;51.168;4.112;2023-03-20T17:47:40;11.40;99.90
23143;DHT22;11740;51.168;4.112;2023-03-20T17:50:15;11.40;99.90
23143;DHT22;11740;51.168;4.112;2023-03-20T17:52:45;11.40;99.90
23143;DHT22;11740;51.168;4.112;2023-03-20T17:55:12;11.40;99.90
23143;DHT22;11740;51.168;4.112;2023-03-20T17:57:38;11.40;99.90
23143;DHT22;11740;51.168;4.112;2023-03-20T18:00:07;11.30;99.90
23143;DHT22;11740;51.168;4.112;2023-03-20T18:02:43;11.30;99.90
23143;DHT22;11740;51.168;4.112;2023-03-20T18:05:10;11.30;99.90
23143;DHT22;11740;51.168;4.112;2023-03-20T18:07:37;11.30;99.90
23143;DHT22;11740;51.168;4.112;2023-03-20T18:10:04;11.30;99.90
23143;DHT22;11740;51.168;4.112;2023-03-20T18:12:31;11.30;99.90
23143;DHT22;11740;51.168;4.112;2023-03-20T18:14:59;11.30;99.90
23143;DHT22;11740;51.168;4.112;2023-03-20T18:17:26;11.30;99.90
23143;DHT22;11740;51.168;4.112;2023-03-20T18:19:53;11.30;99.90
23143;DHT22;11740;51.168;4.112;2023-03-20T18:22:20;11.30;99.90
23143;DHT22;11740;51.168;4.112;2023-03-20T18:24:47;11.30;99.90
23143;DHT22;11740;51.168;4.112;2023-03-20T18:27:14;11.30;99.90
23143;DHT22;11740;51.168;4.112;2023-03-20T18:29:41;11.30;99.90
23143;DHT22;11740;51.168;4.112;2023-03-20T18:32:08;11.30;99.90
23143;DHT22;11740;51.168;4.112;2023-03-20T18:34:35;11.30;99.90
23143;DHT22;11740;51.168;4.112;2023-03-20T18:37:01;11.20;99.90
23143;DHT22;11740;51.168;4.112;2023-03-20T18:39:32;11.20;99.90
23143;DHT22;11740;51.168;4.112;2023-03-20T18:41:59;11.20;99.90
23143;DHT22;11740;51.168;4.112;2023-03-20T18:44:26;11.20;99.90
23143;DHT22;11740;51.168;4.112;2023-03-20T18:46:53;11.20;99.90
23143;DHT22;11740;51.168;4.112;2023-03-20T18:49:20;11.20;99.90
23143;DHT22;11740;51.168;4.112;2023-03-20T18:51:47;11.20;99.90
23143;DHT22;11740;51.168;4.112;2023-03-20T18:54:14;11.20;99.90